sensor_id;sensor_type;location;lat;lon;timestamp;P1;durP1;ratioP1;P2;durP2;ratioP2
74644;SDS011;63163;55.630;37.594;2023-01-13T00:00:58;11.1;;;6.0;;
74644;SDS011;63163;55.630;37.594;2023-01-13T00:01:58;9.3;;;6.0;;
74644;SDS011;63163;55.630;37.594;2023-01-13T00:02:59;10.2;;;6.0;;
74644;SDS011;63163;55.630;37.594;2023-01-13T00:03:59;8.1;;;4.8;;
74644;SDS011;63163;55.630;37.594;2023-01-13T00:05:00;9.0;;;4.7;;
74644;SDS011;63163;55.630;37.594;2023-01-13T00:06:00;13.0;;;5.9;;
74644;SDS011;63163;55.630;37.594;2023-01-13T00:07:01;10.3;;;5.9;;
74644;SDS011;63163;55.630;37.594;2023-01-13T00:08:02;11.3;;;6.0;;
74644;SDS011;63163;55.630;37.594;2023-01-13T00:09:04;7.4;;;4.1;;
74644;SDS011;63163;55.630;37.594;2023-01-13T00:10:05;9.5;;;5.4;;
74644;SDS011;63163;55.630;37.594;2023-01-13T00:11:05;11.5;;;6.5;;
74644;SDS011;63163;55.630;37.594;2023-01-13T00:12:06;8.7;;;4.8;;
74644;SDS011;63163;55.630;37.594;2023-01-13T00:13:07;7.7;;;4.8;;
74644;SDS011;63163;55.630;37.594;2023-01-13T00:14:07;8.7;;;5.0;;
74644;SDS011;63163;55.630;37.594;2023-01-13T00:15:08;11.8;;;7.1;;
74644;SDS011;63163;55.630;37.594;2023-01-13T00:16:10;8.0;;;5.0;;
74644;SDS011;63163;55.630;37.594;2023-01-13T00:17:11;10.5;;;5.3;;
74644;SDS011;63163;55.630;37.594;2023-01-13T00:18:11;9.9;;;4.0;;
74644;SDS011;63163;55.630;37.594;2023-01-13T00:19:12;9.5;;;5.2;;
74644;SDS011;63163;55.630;37.594;2023-01-13T00:20:12;8.0;;;5.1;;
74644;SDS011;63163;55.630;37.594;2023-01-13T00:21:13;10.2;;;6.2;;
74644;SDS011;63163;55.630;37.594;2023-01-13T00:22:14;11.3;;;5.8;;
74644;SDS011;63163;55.630;37.594;2023-01-13T00:23:15;7.4;;;4.9;;
74644;SDS011;63163;55.630;37.594;2023-01-13T00:24:15;8.0;;;4.5;;
74644;SDS011;63163;55.630;37.594;2023-01-13T00:25:16;5.5;;;3.5;;
74644;SDS011;63163;55.630;37.594;2023-01-13T00:26:17;8.8;;;5.5;;
74644;SDS011;63163;55.630;37.594;2023-01-13T00:27:18;9.4;;;5.2;;
74644;SDS011;63163;55.630;37.594;2023-01-13T00:28:19;11.6;;;6.4;;
74644;SDS011;63163;55.630;37.594;2023-01-13T00:29:19;9.5;;;5.6;;
74644;SDS011;63163;55.630;37.594;2023-01-13T00:30:20;9.5;;;5.7;;
74644;SDS011;63163;55.630;37.594;2023-01-13T00:31:21;12.5;;;6.1;;
74644;SDS011;63163;55.630;37.594;2023-01-13T00:32:21;11.4;;;5.1;;
74644;SDS011;63163;55.630;37.594;2023-01-13T00:33:22;11.9;;;6.5;;
74644;SDS011;63163;55.630;37.594;2023-01-13T00:34:22;9.4;;;4.9;;
74644;SDS011;63163;55.630;37.594;2023-01-13T00:35:23;9.1;;;5.4;;
74644;SDS011;63163;55.630;37.594;2023-01-13T00:36:24;10.0;;;5.7;;
74644;SDS011;63163;55.630;37.594;2023-01-13T00:37:25;13.9;;;6.9;;
74644;SDS011;63163;55.630;37.594;2023-01-13T00:38:26;9.3;;;5.7;;
74644;SDS011;63163;55.630;37.594;2023-01-13T00:39:27;7.6;;;4.6;;
74644;SDS011;63163;55.630;37.594;2023-01-13T00:40:28;8.6;;;5.3;;
74644;SDS011;63163;55.630;37.594;2023-01-13T00:41:28;8.7;;;5.1;;
74644;SDS011;63163;55.630;37.594;2023-01-13T00:44:21;10.6;;;6.0;;
74644;SDS011;63163;55.630;37.594;2023-01-13T00:45:22;4.5;;;2.6;;
74644;SDS011;63163;55.630;37.594;2023-01-13T00:46:22;9.3;;;5.9;;
74644;SDS011;63163;55.630;37.594;2023-01-13T00:47:23;4.6;;;3.2;;
74644;SDS011;63163;55.630;37.594;2023-01-13T00:48:24;9.9;;;5.1;;
74644;SDS011;63163;55.630;37.594;2023-01-13T00:49:25;15.4;;;6.8;;
74644;SDS011;63163;55.630;37.594;2023-01-13T00:50:26;8.1;;;5.1;;
74644;SDS011;63163;55.630;37.594;2023-01-13T00:51:27;7.3;;;4.5;;
74644;SDS011;63163;55.630;37.594;2023-01-13T00:52:28;7.2;;;4.5;;
74644;SDS011;63163;55.630;37.594;2023-01-13T00:53:32;4.7;;;3.3;;
74644;SDS011;63163;55.630;37.594;2023-01-13T00:54:33;7.5;;;5.0;;
74644;SDS011;63163;55.630;37.594;2023-01-13T00:55:34;6.9;;;4.5;;
74644;SDS011;63163;55.630;37.594;2023-01-13T00:56:34;7.1;;;3.8;;
74644;SDS011;63163;55.630;37.594;2023-01-13T00:57:35;8.9;;;5.1;;
74644;SDS011;63163;55.630;37.594;2023-01-13T00:58:35;6.3;;;4.5;;
74644;SDS011;63163;55.630;37.594;2023-01-13T00:59:36;4.2;;;2.4;;
74644;SDS011;63163;55.630;37.594;2023-01-13T01:00:36;7.6;;;4.4;;
74644;SDS011;63163;55.630;37.594;2023-01-13T01:01:37;6.2;;;4.1;;
74644;SDS011;63163;55.630;37.594;2023-01-13T01:02:37;6.4;;;4.5;;
74644;SDS011;63163;55.630;37.594;2023-01-13T01:03:38;9.3;;;5.0;;
74644;SDS011;63163;55.630;37.594;2023-01-13T01:04:39;12.5;;;6.0;;
74644;SDS011;63163;55.630;37.594;2023-01-13T01:05:39;8.1;;;4.9;;
74644;SDS011;63163;55.630;37.594;2023-01-13T01:06:40;10.0;;;5.6;;
74644;SDS011;63163;55.630;37.594;2023-01-13T01:07:40;8.7;;;5.4;;
74644;SDS011;63163;55.630;37.594;2023-01-13T01:08:41;5.5;;;3.7;;
74644;SDS011;63163;55.630;37.594;2023-01-13T01:09:42;7.9;;;3.8;;
74644;SDS011;63163;55.630;37.594;2023-01-13T01:10:42;9.2;;;3.9;;
74644;SDS011;63163;55.630;37.594;2023-01-13T01:11:43;4.8;;;2.8;;
74644;SDS011;63163;55.630;37.594;2023-01-13T01:12:43;9.5;;;5.1;;
74644;SDS011;63163;55.630;37.594;2023-01-13T01:13:44;8.6;;;4.9;;
74644;SDS011;63163;55.630;37.594;2023-01-13T01:14:45;11.2;;;5.3;;
74644;SDS011;63163;55.630;37.594;2023-01-13T01:15:45;10.7;;;6.0;;
74644;SDS011;63163;55.630;37.594;2023-01-13T01:16:47;9.0;;;4.9;;
74644;SDS011;63163;55.630;37.594;2023-01-13T01:17:47;9.7;;;4.7;;
74644;SDS011;63163;55.630;37.594;2023-01-13T01:18:48;6.5;;;3.8;;
74644;SDS011;63163;55.630;37.594;2023-01-13T01:19:49;7.8;;;5.0;;
74644;SDS011;63163;55.630;37.594;2023-01-13T01:20:50;8.1;;;4.9;;
74644;SDS011;63163;55.630;37.594;2023-01-13T01:21:50;5.1;;;3.5;;
74644;SDS011;63163;55.630;37.594;2023-01-13T01:22:51;6.2;;;4.1;;
74644;SDS011;63163;55.630;37.594;2023-01-13T01:23:51;9.0;;;5.7;;
74644;SDS011;63163;55.630;37.594;2023-01-13T01:24:52;8.8;;;4.9;;
74644;SDS011;63163;55.630;37.594;2023-01-13T01:25:53;8.3;;;5.3;;
74644;SDS011;63163;55.630;37.594;2023-01-13T01:26:53;7.5;;;4.7;;
74644;SDS011;63163;55.630;37.594;2023-01-13T01:27:54;9.7;;;4.8;;
74644;SDS011;63163;55.630;37.594;2023-01-13T01:28:54;8.1;;;4.7;;
74644;SDS011;63163;55.630;37.594;2023-01-13T01:29:55;3.7;;;2.5;;
74644;SDS011;63163;55.630;37.594;2023-01-13T01:30:56;7.1;;;4.2;;
74644;SDS011;63163;55.630;37.594;2023-01-13T01:31:58;8.0;;;5.0;;
74644;SDS011;63163;55.630;37.594;2023-01-13T01:32:59;5.2;;;3.3;;
74644;SDS011;63163;55.630;37.594;2023-01-13T01:34:02;11.9;;;6.0;;
74644;SDS011;63163;55.630;37.594;2023-01-13T01:35:03;8.0;;;5.0;;
74644;SDS011;63163;55.630;37.594;2023-01-13T01:36:04;8.8;;;5.1;;
74644;SDS011;63163;55.630;37.594;2023-01-13T01:37:04;10.6;;;5.9;;
74644;SDS011;63163;55.630;37.594;2023-01-13T01:38:05;5.4;;;3.5;;
74644;SDS011;63163;55.630;37.594;2023-01-13T01:39:06;10.6;;;6.7;;
74644;SDS011;63163;55.630;37.594;2023-01-13T01:40:07;5.1;;;3.1;;
74644;SDS011;63163;55.630;37.594;2023-01-13T01:41:08;9.2;;;5.3;;
74644;SDS011;63163;55.630;37.594;2023-01-13T01:42:11;9.2;;;4.9;;
74644;SDS011;63163;55.630;37.594;2023-01-13T01:45:21;8.2;;;5.0;;
74644;SDS011;63163;55.630;37.594;2023-01-13T01:46:21;5.2;;;3.7;;
74644;SDS011;63163;55.630;37.594;2023-01-13T01:47:22;7.5;;;4.6;;
74644;SDS011;63163;55.630;37.594;2023-01-13T01:48:23;8.2;;;5.0;;
74644;SDS011;63163;55.630;37.594;2023-01-13T01:49:25;8.4;;;5.2;;
74644;SDS011;63163;55.630;37.594;2023-01-13T01:50:28;7.5;;;5.1;;
74644;SDS011;63163;55.630;37.594;2023-01-13T01:51:30;9.3;;;4.1;;
74644;SDS011;63163;55.630;37.594;2023-01-13T01:52:32;6.0;;;4.2;;
74644;SDS011;63163;55.630;37.594;2023-01-13T01:53:34;8.7;;;4.1;;
74644;SDS011;63163;55.630;37.594;2023-01-13T01:54:36;8.0;;;3.9;;
74644;SDS011;63163;55.630;37.594;2023-01-13T01:55:39;6.6;;;3.6;;
74644;SDS011;63163;55.630;37.594;2023-01-13T01:56:40;7.2;;;4.7;;
74644;SDS011;63163;55.630;37.594;2023-01-13T01:57:43;9.1;;;5.1;;
74644;SDS011;63163;55.630;37.594;2023-01-13T01:58:46;7.4;;;3.5;;
74644;SDS011;63163;55.630;37.594;2023-01-13T01:59:50;8.4;;;5.0;;
74644;SDS011;63163;55.630;37.594;2023-01-13T02:00:50;7.0;;;4.2;;
74644;SDS011;63163;55.630;37.594;2023-01-13T02:01:51;5.7;;;3.5;;
74644;SDS011;63163;55.630;37.594;2023-01-13T02:02:51;8.3;;;4.3;;
74644;SDS011;63163;55.630;37.594;2023-01-13T02:03:53;7.5;;;4.6;;
74644;SDS011;63163;55.630;37.594;2023-01-13T02:04:55;9.8;;;4.7;;
74644;SDS011;63163;55.630;37.594;2023-01-13T02:05:56;7.7;;;4.7;;
74644;SDS011;63163;55.630;37.594;2023-01-13T02:06:57;10.0;;;5.1;;
74644;SDS011;63163;55.630;37.594;2023-01-13T02:07:58;8.8;;;5.3;;
74644;SDS011;63163;55.630;37.594;2023-01-13T02:08:59;7.1;;;4.8;;
74644;SDS011;63163;55.630;37.594;2023-01-13T02:10:00;7.0;;;5.0;;
74644;SDS011;63163;55.630;37.594;2023-01-13T02:11:01;8.3;;;5.1;;
74644;SDS011;63163;55.630;37.594;2023-01-13T02:12:02;4.4;;;3.1;;
74644;SDS011;63163;55.630;37.594;2023-01-13T02:13:34;7.3;;;4.4;;
74644;SDS011;63163;55.630;37.594;2023-01-13T02:14:34;5.4;;;3.5;;
74644;SDS011;63163;55.630;37.594;2023-01-13T02:15:37;5.0;;;3.8;;
74644;SDS011;63163;55.630;37.594;2023-01-13T02:16:43;7.4;;;4.3;;
74644;SDS011;63163;55.630;37.594;2023-01-13T02:17:53;7.1;;;4.8;;
74644;SDS011;63163;55.630;37.594;2023-01-13T02:18:59;10.3;;;5.2;;
74644;SDS011;63163;55.630;37.594;2023-01-13T02:21:12;6.7;;;4.4;;
74644;SDS011;63163;55.630;37.594;2023-01-13T02:22:24;7.7;;;4.6;;
74644;SDS011;63163;55.630;37.594;2023-01-13T02:23:53;8.0;;;5.5;;
74644;SDS011;63163;55.630;37.594;2023-01-13T02:26:01;9.5;;;5.3;;
74644;SDS011;63163;55.630;37.594;2023-01-13T02:27:11;8.2;;;4.5;;
74644;SDS011;63163;55.630;37.594;2023-01-13T02:28:19;7.1;;;3.9;;
74644;SDS011;63163;55.630;37.594;2023-01-13T02:29:27;10.0;;;5.4;;
74644;SDS011;63163;55.630;37.594;2023-01-13T02:32:39;6.9;;;4.0;;
74644;SDS011;63163;55.630;37.594;2023-01-13T02:33:45;8.9;;;4.2;;
74644;SDS011;63163;55.630;37.594;2023-01-13T02:34:51;8.5;;;4.6;;
74644;SDS011;63163;55.630;37.594;2023-01-13T02:35:56;6.0;;;3.8;;
74644;SDS011;63163;55.630;37.594;2023-01-13T02:36:59;7.5;;;3.6;;
74644;SDS011;63163;55.630;37.594;2023-01-13T02:38:03;7.6;;;3.4;;
74644;SDS011;63163;55.630;37.594;2023-01-13T02:39:06;6.1;;;3.3;;
74644;SDS011;63163;55.630;37.594;2023-01-13T02:40:10;6.6;;;4.3;;
74644;SDS011;63163;55.630;37.594;2023-01-13T02:41:13;6.6;;;4.5;;
74644;SDS011;63163;55.630;37.594;2023-01-13T02:44:24;4.3;;;3.3;;
74644;SDS011;63163;55.630;37.594;2023-01-13T02:45:25;6.0;;;3.3;;
74644;SDS011;63163;55.630;37.594;2023-01-13T02:46:28;10.0;;;4.9;;
74644;SDS011;63163;55.630;37.594;2023-01-13T02:47:31;10.3;;;5.9;;
74644;SDS011;63163;55.630;37.594;2023-01-13T02:48:33;6.4;;;4.4;;
74644;SDS011;63163;55.630;37.594;2023-01-13T02:49:36;5.9;;;3.5;;
74644;SDS011;63163;55.630;37.594;2023-01-13T02:50:38;5.7;;;3.7;;
74644;SDS011;63163;55.630;37.594;2023-01-13T02:51:39;9.0;;;5.7;;
74644;SDS011;63163;55.630;37.594;2023-01-13T02:52:43;6.3;;;3.6;;
74644;SDS011;63163;55.630;37.594;2023-01-13T02:53:45;4.1;;;2.8;;
74644;SDS011;63163;55.630;37.594;2023-01-13T02:54:49;6.1;;;3.5;;
74644;SDS011;63163;55.630;37.594;2023-01-13T02:55:50;9.0;;;3.1;;
74644;SDS011;63163;55.630;37.594;2023-01-13T02:56:52;4.2;;;2.5;;
74644;SDS011;63163;55.630;37.594;2023-01-13T02:57:53;4.8;;;3.5;;
74644;SDS011;63163;55.630;37.594;2023-01-13T02:58:56;5.6;;;3.7;;
74644;SDS011;63163;55.630;37.594;2023-01-13T02:59:56;4.6;;;3.2;;
74644;SDS011;63163;55.630;37.594;2023-01-13T03:00:57;9.3;;;5.0;;
74644;SDS011;63163;55.630;37.594;2023-01-13T03:01:58;6.8;;;3.6;;
74644;SDS011;63163;55.630;37.594;2023-01-13T03:02:58;3.5;;;2.3;;
74644;SDS011;63163;55.630;37.594;2023-01-13T03:04:09;7.6;;;4.7;;
74644;SDS011;63163;55.630;37.594;2023-01-13T03:05:11;5.8;;;3.2;;
74644;SDS011;63163;55.630;37.594;2023-01-13T03:06:17;9.7;;;5.0;;
74644;SDS011;63163;55.630;37.594;2023-01-13T03:07:29;4.9;;;3.2;;
74644;SDS011;63163;55.630;37.594;2023-01-13T03:08:36;7.6;;;4.1;;
74644;SDS011;63163;55.630;37.594;2023-01-13T03:09:41;9.3;;;5.2;;
74644;SDS011;63163;55.630;37.594;2023-01-13T03:10:45;7.5;;;4.1;;
74644;SDS011;63163;55.630;37.594;2023-01-13T03:11:51;8.3;;;3.5;;
74644;SDS011;63163;55.630;37.594;2023-01-13T03:12:57;7.3;;;4.3;;
74644;SDS011;63163;55.630;37.594;2023-01-13T03:14:00;4.1;;;2.7;;
74644;SDS011;63163;55.630;37.594;2023-01-13T03:15:07;8.5;;;5.3;;
74644;SDS011;63163;55.630;37.594;2023-01-13T03:16:10;6.4;;;3.7;;
74644;SDS011;63163;55.630;37.594;2023-01-13T03:17:15;4.4;;;2.8;;
74644;SDS011;63163;55.630;37.594;2023-01-13T03:18:23;5.8;;;3.0;;
74644;SDS011;63163;55.630;37.594;2023-01-13T03:19:29;5.9;;;3.4;;
74644;SDS011;63163;55.630;37.594;2023-01-13T03:20:32;6.8;;;3.6;;
74644;SDS011;63163;55.630;37.594;2023-01-13T03:21:35;7.1;;;4.4;;
74644;SDS011;63163;55.630;37.594;2023-01-13T03:22:39;6.4;;;3.0;;
74644;SDS011;63163;55.630;37.594;2023-01-13T03:23:46;5.7;;;3.7;;
74644;SDS011;63163;55.630;37.594;2023-01-13T03:24:50;7.1;;;4.4;;
74644;SDS011;63163;55.630;37.594;2023-01-13T03:25:53;5.8;;;3.4;;
74644;SDS011;63163;55.630;37.594;2023-01-13T03:26:57;8.5;;;4.1;;
74644;SDS011;63163;55.630;37.594;2023-01-13T03:28:00;5.8;;;3.1;;
74644;SDS011;63163;55.630;37.594;2023-01-13T03:29:03;6.5;;;4.1;;
74644;SDS011;63163;55.630;37.594;2023-01-13T03:30:06;8.1;;;4.1;;
74644;SDS011;63163;55.630;37.594;2023-01-13T03:31:10;5.7;;;3.5;;
74644;SDS011;63163;55.630;37.594;2023-01-13T03:32:14;10.8;;;4.1;;
74644;SDS011;63163;55.630;37.594;2023-01-13T03:33:17;6.5;;;4.1;;
74644;SDS011;63163;55.630;37.594;2023-01-13T03:34:20;7.7;;;5.0;;
74644;SDS011;63163;55.630;37.594;2023-01-13T03:35:22;7.4;;;3.7;;
74644;SDS011;63163;55.630;37.594;2023-01-13T03:36:25;5.2;;;3.3;;
74644;SDS011;63163;55.630;37.594;2023-01-13T03:37:28;5.9;;;3.3;;
74644;SDS011;63163;55.630;37.594;2023-01-13T03:38:30;5.8;;;3.3;;
74644;SDS011;63163;55.630;37.594;2023-01-13T03:39:33;4.7;;;2.4;;
74644;SDS011;63163;55.630;37.594;2023-01-13T03:40:35;6.8;;;3.0;;
74644;SDS011;63163;55.630;37.594;2023-01-13T03:41:40;4.5;;;3.0;;
74644;SDS011;63163;55.630;37.594;2023-01-13T03:42:43;8.3;;;3.1;;
74644;SDS011;63163;55.630;37.594;2023-01-13T03:45:21;5.9;;;4.0;;
74644;SDS011;63163;55.630;37.594;2023-01-13T03:46:24;6.7;;;3.1;;
74644;SDS011;63163;55.630;37.594;2023-01-13T03:47:27;8.6;;;3.7;;
74644;SDS011;63163;55.630;37.594;2023-01-13T03:48:31;5.9;;;3.7;;
74644;SDS011;63163;55.630;37.594;2023-01-13T03:49:34;7.1;;;3.3;;
74644;SDS011;63163;55.630;37.594;2023-01-13T03:50:37;2.8;;;1.7;;
74644;SDS011;63163;55.630;37.594;2023-01-13T03:51:39;8.1;;;4.1;;
74644;SDS011;63163;55.630;37.594;2023-01-13T03:52:41;3.3;;;2.3;;
74644;SDS011;63163;55.630;37.594;2023-01-13T03:53:44;5.1;;;2.9;;
74644;SDS011;63163;55.630;37.594;2023-01-13T03:54:49;5.9;;;3.4;;
74644;SDS011;63163;55.630;37.594;2023-01-13T03:55:51;5.9;;;3.4;;
74644;SDS011;63163;55.630;37.594;2023-01-13T03:56:53;5.5;;;2.9;;
74644;SDS011;63163;55.630;37.594;2023-01-13T03:57:56;8.0;;;3.7;;
74644;SDS011;63163;55.630;37.594;2023-01-13T03:58:59;7.8;;;3.6;;
74644;SDS011;63163;55.630;37.594;2023-01-13T04:00:02;3.9;;;2.6;;
74644;SDS011;63163;55.630;37.594;2023-01-13T04:01:04;14.5;;;2.7;;
74644;SDS011;63163;55.630;37.594;2023-01-13T04:02:11;7.3;;;3.5;;
74644;SDS011;63163;55.630;37.594;2023-01-13T04:03:14;4.9;;;2.8;;
74644;SDS011;63163;55.630;37.594;2023-01-13T04:04:20;3.8;;;2.4;;
74644;SDS011;63163;55.630;37.594;2023-01-13T04:05:21;8.2;;;3.6;;
74644;SDS011;63163;55.630;37.594;2023-01-13T04:06:24;5.2;;;3.2;;
74644;SDS011;63163;55.630;37.594;2023-01-13T04:07:31;5.5;;;3.4;;
74644;SDS011;63163;55.630;37.594;2023-01-13T04:08:36;5.1;;;3.1;;
74644;SDS011;63163;55.630;37.594;2023-01-13T04:09:44;3.8;;;2.4;;
74644;SDS011;63163;55.630;37.594;2023-01-13T04:10:48;6.8;;;3.2;;
74644;SDS011;63163;55.630;37.594;2023-01-13T04:11:52;4.5;;;2.6;;
74644;SDS011;63163;55.630;37.594;2023-01-13T04:12:55;6.0;;;3.4;;
74644;SDS011;63163;55.630;37.594;2023-01-13T04:14:00;7.3;;;3.9;;
74644;SDS011;63163;55.630;37.594;2023-01-13T04:15:01;6.9;;;3.3;;
74644;SDS011;63163;55.630;37.594;2023-01-13T04:16:04;7.8;;;3.3;;
74644;SDS011;63163;55.630;37.594;2023-01-13T04:17:05;4.5;;;2.8;;
74644;SDS011;63163;55.630;37.594;2023-01-13T04:18:14;5.8;;;2.9;;
74644;SDS011;63163;55.630;37.594;2023-01-13T04:19:15;5.4;;;3.1;;
74644;SDS011;63163;55.630;37.594;2023-01-13T04:20:15;6.8;;;3.5;;
74644;SDS011;63163;55.630;37.594;2023-01-13T04:21:16;7.9;;;3.9;;
74644;SDS011;63163;55.630;37.594;2023-01-13T04:22:16;5.1;;;3.4;;
74644;SDS011;63163;55.630;37.594;2023-01-13T04:23:18;6.8;;;3.7;;
74644;SDS011;63163;55.630;37.594;2023-01-13T04:24:19;5.8;;;2.6;;
74644;SDS011;63163;55.630;37.594;2023-01-13T04:25:19;6.5;;;3.8;;
74644;SDS011;63163;55.630;37.594;2023-01-13T04:26:21;6.8;;;3.8;;
74644;SDS011;63163;55.630;37.594;2023-01-13T04:27:23;4.1;;;2.6;;
74644;SDS011;63163;55.630;37.594;2023-01-13T04:28:24;7.7;;;4.4;;
74644;SDS011;63163;55.630;37.594;2023-01-13T04:29:25;8.5;;;4.3;;
74644;SDS011;63163;55.630;37.594;2023-01-13T04:30:25;6.0;;;3.2;;
74644;SDS011;63163;55.630;37.594;2023-01-13T04:31:26;5.1;;;2.8;;
74644;SDS011;63163;55.630;37.594;2023-01-13T04:32:26;5.5;;;3.2;;
74644;SDS011;63163;55.630;37.594;2023-01-13T04:33:27;5.4;;;3.1;;
74644;SDS011;63163;55.630;37.594;2023-01-13T04:34:27;4.6;;;2.9;;
74644;SDS011;63163;55.630;37.594;2023-01-13T04:35:28;4.6;;;2.8;;
74644;SDS011;63163;55.630;37.594;2023-01-13T04:36:28;5.7;;;3.1;;
74644;SDS011;63163;55.630;37.594;2023-01-13T04:37:29;6.3;;;3.3;;
74644;SDS011;63163;55.630;37.594;2023-01-13T04:38:29;6.4;;;3.8;;
74644;SDS011;63163;55.630;37.594;2023-01-13T04:39:30;5.8;;;2.4;;
74644;SDS011;63163;55.630;37.594;2023-01-13T04:40:30;7.2;;;3.8;;
74644;SDS011;63163;55.630;37.594;2023-01-13T04:41:31;3.6;;;2.2;;
74644;SDS011;63163;55.630;37.594;2023-01-13T04:42:56;5.4;;;3.2;;
74644;SDS011;63163;55.630;37.594;2023-01-13T04:43:57;2.6;;;1.8;;
74644;SDS011;63163;55.630;37.594;2023-01-13T04:44:57;6.0;;;3.1;;
74644;SDS011;63163;55.630;37.594;2023-01-13T04:45:58;5.6;;;2.8;;
74644;SDS011;63163;55.630;37.594;2023-01-13T04:46:58;4.5;;;3.1;;
74644;SDS011;63163;55.630;37.594;2023-01-13T04:47:59;5.3;;;2.3;;
74644;SDS011;63163;55.630;37.594;2023-01-13T04:49:00;6.1;;;3.3;;
74644;SDS011;63163;55.630;37.594;2023-01-13T04:50:00;6.5;;;3.2;;
74644;SDS011;63163;55.630;37.594;2023-01-13T04:51:01;5.2;;;3.0;;
74644;SDS011;63163;55.630;37.594;2023-01-13T04:52:01;5.0;;;3.1;;
74644;SDS011;63163;55.630;37.594;2023-01-13T04:53:03;8.6;;;3.7;;
74644;SDS011;63163;55.630;37.594;2023-01-13T04:54:03;5.1;;;2.9;;
74644;SDS011;63163;55.630;37.594;2023-01-13T04:55:04;6.5;;;2.9;;
74644;SDS011;63163;55.630;37.594;2023-01-13T04:56:05;3.8;;;2.6;;
74644;SDS011;63163;55.630;37.594;2023-01-13T04:57:06;4.2;;;2.3;;
74644;SDS011;63163;55.630;37.594;2023-01-13T04:58:07;6.3;;;3.1;;
74644;SDS011;63163;55.630;37.594;2023-01-13T04:59:08;6.3;;;3.6;;
74644;SDS011;63163;55.630;37.594;2023-01-13T05:00:09;4.9;;;2.7;;
74644;SDS011;63163;55.630;37.594;2023-01-13T05:01:10;4.5;;;2.3;;
74644;SDS011;63163;55.630;37.594;2023-01-13T05:02:11;5.7;;;2.9;;
74644;SDS011;63163;55.630;37.594;2023-01-13T05:03:18;7.3;;;3.4;;
74644;SDS011;63163;55.630;37.594;2023-01-13T05:04:19;3.5;;;2.3;;
74644;SDS011;63163;55.630;37.594;2023-01-13T05:05:19;5.1;;;2.6;;
74644;SDS011;63163;55.630;37.594;2023-01-13T05:06:20;7.3;;;3.8;;
74644;SDS011;63163;55.630;37.594;2023-01-13T05:07:20;6.2;;;3.3;;
74644;SDS011;63163;55.630;37.594;2023-01-13T05:08:21;6.9;;;3.9;;
74644;SDS011;63163;55.630;37.594;2023-01-13T05:09:21;8.3;;;3.4;;
74644;SDS011;63163;55.630;37.594;2023-01-13T05:10:22;4.0;;;2.2;;
74644;SDS011;63163;55.630;37.594;2023-01-13T05:11:22;4.6;;;3.0;;
74644;SDS011;63163;55.630;37.594;2023-01-13T05:14:30;3.7;;;2.5;;
74644;SDS011;63163;55.630;37.594;2023-01-13T05:17:38;5.6;;;2.9;;
74644;SDS011;63163;55.630;37.594;2023-01-13T05:18:39;5.1;;;2.9;;
74644;SDS011;63163;55.630;37.594;2023-01-13T05:19:39;4.8;;;2.9;;
74644;SDS011;63163;55.630;37.594;2023-01-13T05:20:40;5.0;;;2.5;;
74644;SDS011;63163;55.630;37.594;2023-01-13T05:21:40;7.3;;;3.7;;
74644;SDS011;63163;55.630;37.594;2023-01-13T05:24:48;6.1;;;3.2;;
74644;SDS011;63163;55.630;37.594;2023-01-13T05:26:51;4.4;;;2.9;;
74644;SDS011;63163;55.630;37.594;2023-01-13T05:27:53;5.4;;;3.2;;
74644;SDS011;63163;55.630;37.594;2023-01-13T05:28:53;4.3;;;2.3;;
74644;SDS011;63163;55.630;37.594;2023-01-13T05:29:54;6.9;;;3.7;;
74644;SDS011;63163;55.630;37.594;2023-01-13T05:30:55;6.6;;;3.6;;
74644;SDS011;63163;55.630;37.594;2023-01-13T05:31:56;6.8;;;3.4;;
74644;SDS011;63163;55.630;37.594;2023-01-13T05:32:56;5.1;;;2.8;;
74644;SDS011;63163;55.630;37.594;2023-01-13T05:33:57;4.3;;;2.4;;
74644;SDS011;63163;55.630;37.594;2023-01-13T05:34:57;5.1;;;3.0;;
74644;SDS011;63163;55.630;37.594;2023-01-13T05:36:00;5.3;;;2.7;;
74644;SDS011;63163;55.630;37.594;2023-01-13T05:37:01;7.4;;;3.3;;
74644;SDS011;63163;55.630;37.594;2023-01-13T05:38:02;4.6;;;2.2;;
74644;SDS011;63163;55.630;37.594;2023-01-13T05:39:03;2.9;;;1.5;;
74644;SDS011;63163;55.630;37.594;2023-01-13T05:40:05;4.2;;;2.4;;
74644;SDS011;63163;55.630;37.594;2023-01-13T05:43:13;5.7;;;2.8;;
74644;SDS011;63163;55.630;37.594;2023-01-13T05:44:29;5.5;;;3.0;;
74644;SDS011;63163;55.630;37.594;2023-01-13T05:45:30;4.4;;;2.9;;
74644;SDS011;63163;55.630;37.594;2023-01-13T05:46:31;5.3;;;2.8;;
74644;SDS011;63163;55.630;37.594;2023-01-13T05:47:31;3.8;;;2.3;;
74644;SDS011;63163;55.630;37.594;2023-01-13T05:48:33;5.1;;;2.7;;
74644;SDS011;63163;55.630;37.594;2023-01-13T05:49:34;5.6;;;2.8;;
74644;SDS011;63163;55.630;37.594;2023-01-13T05:50:34;5.9;;;2.9;;
74644;SDS011;63163;55.630;37.594;2023-01-13T05:51:35;3.5;;;1.8;;
74644;SDS011;63163;55.630;37.594;2023-01-13T05:52:35;5.8;;;3.1;;
74644;SDS011;63163;55.630;37.594;2023-01-13T05:53:36;3.2;;;1.8;;
74644;SDS011;63163;55.630;37.594;2023-01-13T05:54:36;5.3;;;2.5;;
74644;SDS011;63163;55.630;37.594;2023-01-13T05:55:37;3.4;;;1.9;;
74644;SDS011;63163;55.630;37.594;2023-01-13T05:56:38;6.9;;;3.4;;
74644;SDS011;63163;55.630;37.594;2023-01-13T05:57:39;3.7;;;2.3;;
74644;SDS011;63163;55.630;37.594;2023-01-13T05:58:39;6.6;;;2.8;;
74644;SDS011;63163;55.630;37.594;2023-01-13T05:59:40;2.6;;;1.3;;
74644;SDS011;63163;55.630;37.594;2023-01-13T06:00:40;5.0;;;2.9;;
74644;SDS011;63163;55.630;37.594;2023-01-13T06:01:41;5.3;;;2.6;;
74644;SDS011;63163;55.630;37.594;2023-01-13T06:02:41;4.9;;;2.7;;
74644;SDS011;63163;55.630;37.594;2023-01-13T06:03:42;2.9;;;2.1;;
74644;SDS011;63163;55.630;37.594;2023-01-13T06:04:42;2.3;;;1.6;;
74644;SDS011;63163;55.630;37.594;2023-01-13T06:05:43;3.1;;;1.9;;
74644;SDS011;63163;55.630;37.594;2023-01-13T06:06:43;5.7;;;3.2;;
74644;SDS011;63163;55.630;37.594;2023-01-13T06:07:44;4.9;;;2.8;;
74644;SDS011;63163;55.630;37.594;2023-01-13T06:08:45;4.2;;;2.3;;
74644;SDS011;63163;55.630;37.594;2023-01-13T06:09:45;7.9;;;3.6;;
74644;SDS011;63163;55.630;37.594;2023-01-13T06:10:46;6.2;;;2.3;;
74644;SDS011;63163;55.630;37.594;2023-01-13T06:11:46;4.4;;;2.2;;
74644;SDS011;63163;55.630;37.594;2023-01-13T06:12:47;2.9;;;1.8;;
74644;SDS011;63163;55.630;37.594;2023-01-13T06:13:47;4.4;;;2.4;;
74644;SDS011;63163;55.630;37.594;2023-01-13T06:14:48;6.0;;;3.5;;
74644;SDS011;63163;55.630;37.594;2023-01-13T06:15:48;3.9;;;1.9;;
74644;SDS011;63163;55.630;37.594;2023-01-13T06:16:49;3.9;;;2.1;;
74644;SDS011;63163;55.630;37.594;2023-01-13T06:17:50;6.5;;;2.9;;
74644;SDS011;63163;55.630;37.594;2023-01-13T06:18:50;2.1;;;1.5;;
74644;SDS011;63163;55.630;37.594;2023-01-13T06:19:51;6.3;;;2.7;;
74644;SDS011;63163;55.630;37.594;2023-01-13T06:20:51;4.8;;;2.6;;
74644;SDS011;63163;55.630;37.594;2023-01-13T06:21:52;4.1;;;2.2;;
74644;SDS011;63163;55.630;37.594;2023-01-13T06:22:55;7.1;;;3.4;;
74644;SDS011;63163;55.630;37.594;2023-01-13T06:23:57;3.7;;;1.9;;
74644;SDS011;63163;55.630;37.594;2023-01-13T06:24:58;4.5;;;2.5;;
74644;SDS011;63163;55.630;37.594;2023-01-13T06:25:59;6.8;;;3.1;;
74644;SDS011;63163;55.630;37.594;2023-01-13T06:27:01;5.2;;;3.1;;
74644;SDS011;63163;55.630;37.594;2023-01-13T06:28:02;3.4;;;1.6;;
74644;SDS011;63163;55.630;37.594;2023-01-13T06:29:03;4.8;;;3.2;;
74644;SDS011;63163;55.630;37.594;2023-01-13T06:30:04;5.4;;;3.0;;
74644;SDS011;63163;55.630;37.594;2023-01-13T06:31:05;7.0;;;2.7;;
74644;SDS011;63163;55.630;37.594;2023-01-13T06:32:10;4.2;;;2.4;;
74644;SDS011;63163;55.630;37.594;2023-01-13T06:33:12;4.3;;;2.5;;
74644;SDS011;63163;55.630;37.594;2023-01-13T06:34:14;5.2;;;2.6;;
74644;SDS011;63163;55.630;37.594;2023-01-13T06:35:16;4.9;;;3.1;;
74644;SDS011;63163;55.630;37.594;2023-01-13T06:36:18;4.5;;;2.6;;
74644;SDS011;63163;55.630;37.594;2023-01-13T06:37:21;5.5;;;3.4;;
74644;SDS011;63163;55.630;37.594;2023-01-13T06:38:24;5.1;;;2.8;;
74644;SDS011;63163;55.630;37.594;2023-01-13T06:39:26;5.1;;;3.2;;
74644;SDS011;63163;55.630;37.594;2023-01-13T06:40:30;3.4;;;2.3;;
74644;SDS011;63163;55.630;37.594;2023-01-13T06:41:31;5.5;;;3.2;;